Time;durP1;ratioP1;P1;durP2;ratioP2;P2;SDS_P1;SDS_P2;PMS_P1;PMS_P2;Temp;Humidity;BMP_temperature;BMP_pressure;BME280_temperature;BME280_humidity;BME280_pressure;Samples;Min_cycle;Max_cycle;Signal;HPM_P1;HPM_P2
2022/03/23 00:01:22;;;;;;;21.60;15.30;;;7.40;62.40;;;;;;5059301;28;20812;-45
2022/03/23 00:03:50;;;;;;;19.17;14.87;;;7.40;62.60;;;;;;5058362;28;20465;-45
2022/03/23 00:06:17;;;;;;;21.87;15.03;;;7.30;62.70;;;;;;5048860;28;20453;-45
2022/03/23 00:08:45;;;;;;;18.43;15.17;;;7.30;62.90;;;;;;5061098;28;20461;-45
2022/03/23 00:11:12;;;;;;;20.10;15.47;;;7.30;63.00;;;;;;5032457;28;20458;-45
2022/03/23 00:13:40;;;;;;;22.10;15.27;;;7.30;63.00;;;;;;5060422;28;20481;-45
2022/03/23 00:16:07;;;;;;;21.10;14.90;;;7.20;63.20;;;;;;5061809;28;20461;-45
2022/03/23 00:18:33;;;;;;;23.37;14.97;;;7.20;63.30;;;;;;5059281;28;20450;-45
2022/03/23 00:21:00;;;;;;;21.33;14.50;;;7.20;63.50;;;;;;5064159;28;20465;-44
2022/03/23 00:23:27;;;;;;;18.57;14.57;;;7.20;63.50;;;;;;5057251;28;20473;-44
2022/03/23 00:25:54;;;;;;;20.03;15.03;;;7.20;63.60;;;;;;5060714;28;20462;-44
2022/03/23 00:28:21;;;;;;;23.90;15.60;;;7.20;63.70;;;;;;5065885;28;20457;-44
2022/03/23 00:30:51;;;;;;;22.60;15.00;;;7.10;63.90;;;;;;5067226;28;20472;-44
2022/03/23 00:33:36;;;;;;;21.00;15.10;;;7.10;63.90;;;;;;5044527;28;20463;-44
2022/03/23 00:36:06;;;;;;;19.70;14.57;;;7.10;63.80;;;;;;5055773;28;20579;-45
2022/03/23 00:38:34;;;;;;;21.23;16.80;;;7.10;64.00;;;;;;5061411;28;20489;-45
2022/03/23 00:41:03;;;;;;;20.27;14.30;;;7.00;64.20;;;;;;5062188;28;20458;-45
2022/03/23 00:43:30;;;;;;;25.50;16.80;;;7.00;64.30;;;;;;5058235;28;20534;-45
2022/03/23 00:45:57;;;;;;;26.73;14.60;;;7.00;64.30;;;;;;5061439;28;20453;-45
2022/03/23 00:48:24;;;;;;;18.50;14.47;;;7.00;64.60;;;;;;5059240;28;20524;-45
2022/03/23 00:50:51;;;;;;;17.90;13.57;;;6.90;64.60;;;;;;5059797;28;20469;-45
2022/03/23 00:53:18;;;;;;;18.60;14.50;;;6.90;64.60;;;;;;5039478;28;21148;-45
2022/03/23 00:55:45;;;;;;;21.97;13.50;;;6.90;64.60;;;;;;5059245;28;21001;-45
2022/03/23 00:58:11;;;;;;;18.83;13.20;;;6.80;64.50;;;;;;5058278;28;20497;-45
2022/03/23 01:00:41;;;;;;;19.40;14.27;;;6.80;64.40;;;;;;5059680;28;20462;-45
2022/03/23 01:03:08;;;;;;;22.37;13.53;;;6.80;64.40;;;;;;5056177;28;20532;-45
2022/03/23 01:05:35;;;;;;;21.53;15.70;;;6.70;64.30;;;;;;5061887;28;20461;-45
2022/03/23 01:08:03;;;;;;;16.43;12.43;;;6.70;64.30;;;;;;5058602;28;20480;-45
2022/03/23 01:10:30;;;;;;;20.40;14.73;;;6.70;64.20;;;;;;5059059;28;21038;-45
2022/03/23 01:12:57;;;;;;;23.30;15.70;;;6.70;64.50;;;;;;5050077;28;20465;-45
2022/03/23 01:15:24;;;;;;;23.13;15.80;;;6.60;64.60;;;;;;5060230;28;20467;-45
2022/03/23 01:17:51;;;;;;;25.07;15.23;;;6.60;64.60;;;;;;5059715;28;20482;-45
2022/03/23 01:20:22;;;;;;;21.27;15.00;;;6.60;64.80;;;;;;5046578;28;20977;-45
2022/03/23 01:22:50;;;;;;;18.20;14.40;;;6.60;64.90;;;;;;5057766;28;20470;-45
2022/03/23 01:25:18;;;;;;;20.60;14.97;;;6.60;64.80;;;;;;5059443;28;20538;-45
2022/03/23 01:27:46;;;;;;;17.43;12.80;;;6.50;64.80;;;;;;5047565;28;20477;-45
2022/03/23 01:30:14;;;;;;;19.07;13.70;;;6.50;64.80;;;;;;5062065;28;20457;-45
2022/03/23 01:32:43;;;;;;;20.20;13.80;;;6.50;64.80;;;;;;5055541;28;20465;-45
2022/03/23 01:35:12;;;;;;;18.90;13.77;;;6.50;64.80;;;;;;5055809;28;20461;-45
2022/03/23 01:37:39;;;;;;;16.63;13.60;;;6.50;64.90;;;;;;5057782;28;20493;-45
2022/03/23 01:40:08;;;;;;;17.10;12.67;;;6.40;65.10;;;;;;5059928;28;20846;-45
2022/03/23 01:42:35;;;;;;;18.80;14.07;;;6.40;65.20;;;;;;5060454;28;20486;-45
2022/03/23 01:45:03;;;;;;;22.10;14.10;;;6.40;65.20;;;;;;5040212;28;20462;-45
2022/03/23 01:47:30;;;;;;;18.03;13.50;;;6.40;65.30;;;;;;5042110;28;20469;-45
2022/03/23 01:49:57;;;;;;;18.07;13.73;;;6.30;65.40;;;;;;5057426;28;20459;-45
2022/03/23 01:52:26;;;;;;;19.13;13.50;;;6.40;65.80;;;;;;5042938;28;20464;-45
2022/03/23 01:54:53;;;;;;;20.70;13.90;;;6.40;65.90;;;;;;5041890;28;21054;-45
2022/03/23 01:57:21;;;;;;;21.67;13.90;;;6.40;65.70;;;;;;5030221;28;20974;-45
2022/03/23 01:59:48;;;;;;;20.83;14.90;;;6.30;65.70;;;;;;5057644;28;20835;-45
2022/03/23 02:02:15;;;;;;;18.23;13.13;;;6.30;65.90;;;;;;5054403;28;20454;-45
2022/03/23 02:04:42;;;;;;;17.27;13.30;;;6.30;66.10;;;;;;5059924;28;20458;-45
2022/03/23 02:07:10;;;;;;;21.60;14.30;;;6.30;66.20;;;;;;5061916;28;20835;-44
2022/03/23 02:09:37;;;;;;;20.70;14.90;;;6.30;66.20;;;;;;5056599;28;20458;-44
2022/03/23 02:12:08;;;;;;;19.57;14.47;;;6.20;66.20;;;;;;5058348;28;20463;-44
2022/03/23 02:14:36;;;;;;;18.77;12.83;;;6.20;66.30;;;;;;5051763;28;20850;-45
2022/03/23 02:17:03;;;;;;;21.00;14.33;;;6.20;66.30;;;;;;5054576;28;20879;-45
2022/03/23 02:19:31;;;;;;;23.63;16.10;;;6.10;66.30;;;;;;5044786;28;20464;-45
2022/03/23 02:21:58;;;;;;;20.80;13.63;;;6.10;66.40;;;;;;5058834;28;20463;-45
2022/03/23 02:24:29;;;;;;;24.07;13.47;;;6.10;66.30;;;;;;5060955;28;21248;-45
2022/03/23 02:26:56;;;;;;;19.80;14.57;;;6.10;66.30;;;;;;5058519;28;20457;-45
2022/03/23 02:29:26;;;;;;;20.30;14.37;;;6.00;66.40;;;;;;5044347;28;20455;-45
2022/03/23 02:31:53;;;;;;;20.43;13.63;;;6.00;66.70;;;;;;5054934;28;20941;-45
2022/03/23 02:34:19;;;;;;;21.33;14.83;;;6.00;66.70;;;;;;5052745;28;20454;-45
2022/03/23 02:36:46;;;;;;;22.40;13.80;;;5.90;66.70;;;;;;5058136;28;20507;-45
2022/03/23 02:39:13;;;;;;;20.70;15.10;;;5.90;66.80;;;;;;5057867;28;20827;-45
2022/03/23 02:41:41;;;;;;;20.60;13.50;;;5.90;67.00;;;;;;5055924;28;20462;-45
2022/03/23 02:44:08;;;;;;;18.43;13.80;;;5.90;66.90;;;;;;5063300;28;20459;-45
2022/03/23 02:46:35;;;;;;;18.63;14.37;;;5.80;66.90;;;;;;5053926;28;20481;-45
2022/03/23 02:49:07;;;;;;;17.80;13.17;;;5.80;66.90;;;;;;5058989;28;20468;-45
2022/03/23 02:51:33;;;;;;;16.00;13.07;;;5.80;66.90;;;;;;5056850;28;20470;-45
2022/03/23 03:03:30;;;;;;;21.53;13.13;;;5.70;67.20;;;;;;5000010;28;20542;-45
2022/03/23 03:05:57;;;;;;;16.83;12.27;;;5.60;67.20;;;;;;5040359;28;20473;-45
2022/03/23 03:11:09;;;;;;;15.40;11.90;;;5.60;67.30;;;;;;5059085;28;20469;-44
2022/03/23 03:13:36;;;;;;;16.67;12.53;;;5.50;67.50;;;;;;5058846;28;20451;-45
2022/03/23 03:16:03;;;;;;;21.13;11.77;;;5.50;67.50;;;;;;5042680;28;20616;-45
2022/03/23 03:18:33;;;;;;;15.17;12.23;;;5.50;67.50;;;;;;5055437;28;20486;-45
2022/03/23 03:21:07;;;;;;;15.07;10.53;;;5.50;67.50;;;;;;5059437;28;20456;-45
2022/03/23 03:23:38;;;;;;;16.70;12.67;;;5.40;67.60;;;;;;5057869;28;20521;-45
2022/03/23 03:26:06;;;;;;;19.97;11.70;;;5.40;67.70;;;;;;5046448;28;20457;-45
2022/03/23 03:28:34;;;;;;;16.07;10.50;;;5.40;67.50;;;;;;5043372;28;20462;-45
2022/03/23 03:31:03;;;;;;;18.20;11.90;;;5.40;67.40;;;;;;5053375;28;20466;-45
2022/03/23 03:33:30;;;;;;;24.63;13.93;;;5.40;67.30;;;;;;5057638;28;20819;-45
2022/03/23 03:35:57;;;;;;;17.60;12.30;;;5.40;67.30;;;;;;5061020;28;20465;-44
2022/03/23 03:38:24;;;;;;;16.90;11.87;;;5.30;67.40;;;;;;5060850;28;20490;-45
2022/03/23 03:40:51;;;;;;;18.10;12.17;;;5.30;67.30;;;;;;5060299;28;20462;-45
2022/03/23 03:43:18;;;;;;;14.90;13.30;;;5.30;67.30;;;;;;5064559;28;20469;-45
2022/03/23 03:45:45;;;;;;;15.50;11.60;;;5.30;67.30;;;;;;5065148;28;20458;-45
2022/03/23 03:48:13;;;;;;;21.43;12.87;;;5.20;67.50;;;;;;5062599;28;20529;-45
2022/03/23 03:50:40;;;;;;;18.70;14.00;;;5.20;67.60;;;;;;5063141;28;20470;-45
2022/03/23 03:53:10;;;;;;;20.27;12.50;;;5.20;67.80;;;;;;5062657;28;20692;-45
2022/03/23 03:55:37;;;;;;;18.63;13.53;;;5.20;67.90;;;;;;5051118;28;20457;-45
2022/03/23 03:58:06;;;;;;;18.77;14.30;;;5.20;68.10;;;;;;5063052;28;20490;-44
2022/03/23 04:00:34;;;;;;;16.93;12.90;;;5.20;68.00;;;;;;5062616;28;20457;-44
2022/03/23 04:03:02;;;;;;;16.40;12.33;;;5.10;68.20;;;;;;5059021;28;20802;-44
2022/03/23 04:05:29;;;;;;;19.20;11.87;;;5.10;68.30;;;;;;5060335;28;21036;-44
2022/03/23 04:07:57;;;;;;;14.80;10.70;;;5.10;68.40;;;;;;5061398;28;20461;-44
2022/03/23 04:10:24;;;;;;;18.90;13.90;;;5.10;68.40;;;;;;5043289;28;20466;-44
2022/03/23 04:12:52;;;;;;;18.70;12.30;;;5.10;68.40;;;;;;5049439;28;20454;-44
2022/03/23 04:15:20;;;;;;;17.17;12.70;;;5.10;68.70;;;;;;5058519;28;20455;-44
2022/03/23 04:17:48;;;;;;;20.50;14.77;;;5.10;68.80;;;;;;5059786;28;20855;-44
2022/03/23 04:20:15;;;;;;;17.03;13.10;;;5.10;68.90;;;;;;5058522;28;20456;-44
2022/03/23 04:22:42;;;;;;;17.10;13.83;;;5.10;69.00;;;;;;5062361;28;20558;-44
2022/03/23 04:25:12;;;;;;;15.47;12.20;;;5.10;68.90;;;;;;5061113;28;20988;-44
2022/03/23 04:27:49;;;;;;;15.77;12.10;;;5.10;68.90;;;;;;5060087;28;20453;-44
2022/03/23 04:30:18;;;;;;;19.80;13.57;;;5.10;68.80;;;;;;5057378;28;20961;-44
2022/03/23 04:32:46;;;;;;;17.00;12.80;;;5.00;68.90;;;;;;5044018;28;20462;-44
2022/03/23 04:35:13;;;;;;;19.73;13.33;;;5.00;69.00;;;;;;5056296;28;20458;-44
2022/03/23 04:37:41;;;;;;;19.50;13.00;;;5.00;69.10;;;;;;5044787;28;21041;-44
2022/03/23 04:40:10;;;;;;;17.40;13.50;;;5.00;69.20;;;;;;5061638;28;20963;-44
2022/03/23 04:42:38;;;;;;;16.87;12.20;;;5.00;69.30;;;;;;5059104;28;20867;-44
2022/03/23 04:45:06;;;;;;;16.77;11.87;;;5.00;69.20;;;;;;5059795;28;20868;-44
2022/03/23 04:47:33;;;;;;;15.30;11.67;;;5.00;69.30;;;;;;5059219;28;20478;-44
2022/03/23 04:50:01;;;;;;;19.20;13.10;;;5.00;69.40;;;;;;5058717;28;20453;-44
2022/03/23 04:52:29;;;;;;;18.17;13.80;;;5.00;69.40;;;;;;5043511;28;20954;-44
2022/03/23 04:54:56;;;;;;;21.07;14.10;;;5.00;69.30;;;;;;5060614;28;20454;-44
2022/03/23 04:57:24;;;;;;;20.13;14.40;;;5.00;69.50;;;;;;5044299;28;20455;-44
2022/03/23 04:59:51;;;;;;;17.40;13.57;;;4.90;69.40;;;;;;5064318;28;20493;-44
2022/03/23 05:02:19;;;;;;;16.53;11.70;;;4.90;69.60;;;;;;5048795;28;20548;-44
2022/03/23 05:04:46;;;;;;;17.73;13.10;;;4.90;69.60;;;;;;5059477;28;20551;-44
2022/03/23 05:07:13;;;;;;;18.87;14.10;;;4.90;69.50;;;;;;5062122;28;20460;-44
2022/03/23 05:09:40;;;;;;;23.00;13.23;;;4.90;69.40;;;;;;5060388;28;20473;-44
2022/03/23 05:12:07;;;;;;;17.60;12.80;;;4.90;69.40;;;;;;5042457;28;20458;-44
2022/03/23 05:14:37;;;;;;;16.60;12.87;;;4.80;69.60;;;;;;5057608;28;20469;-44
2022/03/23 05:17:04;;;;;;;19.87;13.67;;;4.80;69.70;;;;;;5061860;28;20457;-44
2022/03/23 05:19:31;;;;;;;20.57;13.63;;;4.80;69.60;;;;;;5058334;28;20512;-44
2022/03/23 05:21:58;;;;;;;16.60;12.87;;;4.80;69.60;;;;;;5059963;28;20468;-44
2022/03/23 05:24:25;;;;;;;17.13;13.67;;;4.70;69.50;;;;;;5062067;28;21159;-44
2022/03/23 05:26:52;;;;;;;18.50;12.40;;;4.70;69.50;;;;;;5061400;28;20463;-44
2022/03/23 05:29:19;;;;;;;20.17;13.30;;;4.70;69.50;;;;;;5044210;28;20459;-44
2022/03/23 05:31:45;;;;;;;16.40;12.30;;;4.70;69.50;;;;;;5058478;28;20936;-44
2022/03/23 05:34:12;;;;;;;18.30;12.23;;;4.70;69.50;;;;;;5059168;28;20466;-44
2022/03/23 05:36:39;;;;;;;26.90;13.90;;;4.60;69.60;;;;;;5042107;28;20990;-44
2022/03/23 05:39:06;;;;;;;19.57;14.17;;;4.60;69.50;;;;;;5062833;28;20704;-44
2022/03/23 05:41:32;;;;;;;18.90;12.73;;;4.60;69.40;;;;;;5062677;28;20458;-44
2022/03/23 05:44:00;;;;;;;22.07;15.13;;;4.60;69.50;;;;;;5056740;28;20454;-44
2022/03/23 05:46:27;;;;;;;25.43;15.03;;;4.50;69.60;;;;;;5054733;28;20462;-44
2022/03/23 05:48:54;;;;;;;18.03;13.60;;;4.50;69.70;;;;;;5060313;28;20460;-44
2022/03/23 05:51:21;;;;;;;23.13;13.20;;;4.50;69.70;;;;;;5062912;28;20459;-44
2022/03/23 05:53:48;;;;;;;19.70;14.60;;;4.50;69.80;;;;;;5063018;28;20962;-44
2022/03/23 05:56:14;;;;;;;23.27;14.77;;;4.50;70.00;;;;;;5061897;28;20460;-44
2022/03/23 05:58:41;;;;;;;20.60;14.47;;;4.50;70.10;;;;;;5061654;28;20490;-44
2022/03/23 06:01:08;;;;;;;20.67;14.27;;;4.50;70.20;;;;;;5066884;28;20449;-44
2022/03/23 06:03:35;;;;;;;22.33;15.93;;;4.50;70.30;;;;;;5057036;28;20455;-44
2022/03/23 06:06:03;;;;;;;30.10;14.90;;;4.50;70.40;;;;;;5058617;28;20552;-44
2022/03/23 06:08:29;;;;;;;19.13;14.93;;;4.60;70.50;;;;;;5055674;28;20513;-44
2022/03/23 06:10:57;;;;;;;23.40;15.30;;;4.60;70.60;;;;;;5060999;28;20467;-44
2022/03/23 06:13:24;;;;;;;21.63;15.00;;;4.60;70.70;;;;;;5055309;28;20461;-45
2022/03/23 06:15:50;;;;;;;20.50;14.47;;;4.60;70.80;;;;;;5058132;28;20573;-44
2022/03/23 06:18:17;;;;;;;23.50;15.80;;;4.60;70.80;;;;;;5060173;28;20488;-45
2022/03/23 06:20:44;;;;;;;24.83;16.57;;;4.70;71.00;;;;;;5060231;28;20506;-44
2022/03/23 06:23:13;;;;;;;26.20;15.57;;;4.70;71.10;;;;;;5058495;28;20548;-44
2022/03/23 06:25:39;;;;;;;22.97;15.77;;;4.70;71.20;;;;;;5058467;28;20484;-44
2022/03/23 06:28:06;;;;;;;25.97;16.30;;;4.80;71.30;;;;;;5059390;28;20450;-44
2022/03/23 06:30:34;;;;;;;25.73;16.33;;;4.80;71.30;;;;;;5057746;28;20463;-44
2022/03/23 06:33:02;;;;;;;29.40;17.93;;;4.90;71.40;;;;;;5057329;28;20966;-44
2022/03/23 06:35:29;;;;;;;26.37;17.77;;;4.90;71.50;;;;;;5062327;28;20977;-44
2022/03/23 06:37:56;;;;;;;24.47;17.00;;;5.00;71.60;;;;;;5062809;28;20468;-44
2022/03/23 06:40:24;;;;;;;24.50;16.73;;;5.00;71.60;;;;;;5056296;28;20952;-44
2022/03/23 06:42:51;;;;;;;27.43;17.20;;;5.10;71.60;;;;;;5059765;28;20561;-45
2022/03/23 06:45:18;;;;;;;28.27;17.80;;;5.20;71.60;;;;;;5063970;28;20867;-44
2022/03/23 06:47:45;;;;;;;24.97;17.10;;;5.20;71.60;;;;;;5062418;28;20478;-44
2022/03/23 06:50:12;;;;;;;25.40;17.90;;;5.30;71.60;;;;;;5063561;28;20828;-44
2022/03/23 06:52:39;;;;;;;25.20;17.50;;;5.40;71.50;;;;;;5064626;28;21027;-45
2022/03/23 06:55:07;;;;;;;26.13;19.10;;;5.40;71.50;;;;;;5061813;28;20548;-46
2022/03/23 06:57:34;;;;;;;23.57;18.90;;;5.50;71.30;;;;;;5024990;28;20930;-46
2022/03/23 07:00:01;;;;;;;26.60;18.80;;;5.50;71.20;;;;;;5058596;28;20856;-46
2022/03/23 07:02:28;;;;;;;25.87;17.20;;;5.60;71.10;;;;;;5043178;28;20920;-45
2022/03/23 07:04:55;;;;;;;28.23;17.90;;;5.60;71.10;;;;;;5063886;28;20458;-45
2022/03/23 07:07:22;;;;;;;29.17;18.00;;;5.70;71.00;;;;;;5060253;28;20497;-45
2022/03/23 07:09:48;;;;;;;26.57;19.10;;;5.80;70.60;;;;;;5059820;28;20467;-46
2022/03/23 07:12:17;;;;;;;28.97;18.97;;;5.80;70.60;;;;;;5039677;28;21230;-46
2022/03/23 07:14:44;;;;;;;29.63;20.03;;;5.90;70.30;;;;;;5056280;28;20554;-46
2022/03/23 07:17:12;;;;;;;31.37;19.60;;;6.00;69.90;;;;;;5048362;28;20461;-46
2022/03/23 07:19:39;;;;;;;30.60;20.10;;;6.10;69.40;;;;;;5061002;28;20502;-46
2022/03/23 07:22:06;;;;;;;27.93;18.30;;;6.20;69.10;;;;;;5044126;28;20978;-46
2022/03/23 07:24:33;;;;;;;26.90;19.53;;;6.30;69.00;;;;;;5049256;28;21017;-46
2022/03/23 07:27:05;;;;;;;32.27;20.30;;;6.40;68.90;;;;;;5057334;28;20454;-45
2022/03/23 07:29:45;;;;;;;28.93;19.70;;;6.50;68.60;;;;;;5059829;28;20458;-45
2022/03/23 07:32:12;;;;;;;30.30;20.53;;;6.60;68.40;;;;;;5041922;28;20446;-45
2022/03/23 07:34:39;;;;;;;32.37;18.80;;;6.70;68.10;;;;;;5054715;28;20473;-45
2022/03/23 07:37:06;;;;;;;28.70;18.67;;;6.70;67.80;;;;;;5059206;28;21010;-45
2022/03/23 07:39:33;;;;;;;31.27;20.97;;;6.90;67.30;;;;;;5059059;28;20619;-45
2022/03/23 07:42:02;;;;;;;27.37;19.10;;;7.10;66.30;;;;;;5058166;28;20438;-45
2022/03/23 07:44:32;;;;;;;27.27;18.90;;;7.20;65.70;;;;;;5042886;28;21015;-45
2022/03/23 07:47:00;;;;;;;26.07;18.57;;;7.30;65.70;;;;;;5055648;28;20885;-45
2022/03/23 07:49:27;;;;;;;24.37;19.47;;;7.50;65.70;;;;;;5062360;28;20469;-45
2022/03/23 07:51:54;;;;;;;28.00;20.37;;;7.60;65.60;;;;;;5061002;28;20465;-45
2022/03/23 07:54:20;;;;;;;25.60;19.83;;;7.70;65.40;;;;;;5060010;28;20489;-45
2022/03/23 07:56:47;;;;;;;32.10;19.50;;;7.90;64.90;;;;;;5055041;28;20466;-45
2022/03/23 07:59:14;;;;;;;24.73;19.17;;;8.00;64.70;;;;;;5057492;28;20495;-45
2022/03/23 08:01:41;;;;;;;30.23;21.57;;;8.20;64.40;;;;;;5058806;28;20464;-45
2022/03/23 08:04:08;;;;;;;29.40;20.37;;;8.40;63.50;;;;;;5042806;28;20487;-45
2022/03/23 08:06:35;;;;;;;29.17;18.90;;;8.70;62.10;;;;;;5055570;28;20765;-46
2022/03/23 08:09:03;;;;;;;29.13;18.70;;;8.90;61.80;;;;;;5039726;28;20844;-45
2022/03/23 08:11:30;;;;;;;27.73;18.57;;;9.10;61.30;;;;;;5059808;28;20450;-45
2022/03/23 08:13:57;;;;;;;29.30;19.97;;;9.40;60.30;;;;;;5056671;28;20469;-46
2022/03/23 08:16:24;;;;;;;23.10;17.27;;;9.60;60.00;;;;;;5057316;28;20484;-46
2022/03/23 08:18:54;;;;;;;27.00;19.63;;;9.80;59.20;;;;;;5057402;28;20478;-45
2022/03/23 08:21:23;;;;;;;27.47;19.13;;;10.00;59.20;;;;;;5057928;28;20800;-45
2022/03/23 08:23:50;;;;;;;28.70;19.40;;;10.20;58.90;;;;;;5057579;28;20445;-45
2022/03/23 08:26:18;;;;;;;22.20;16.90;;;10.40;57.30;;;;;;5061059;28;20544;-45
2022/03/23 08:28:46;;;;;;;24.93;18.40;;;10.70;56.70;;;;;;5063005;28;20549;-45
2022/03/23 08:31:13;;;;;;;29.13;18.27;;;10.90;56.30;;;;;;5063568;28;20497;-46
2022/03/23 08:33:40;;;;;;;24.07;17.73;;;11.20;54.80;;;;;;5061200;28;20450;-46
2022/03/23 08:36:08;;;;;;;26.30;19.43;;;11.40;54.60;;;;;;5064069;28;20561;-45
2022/03/23 08:38:36;;;;;;;25.37;17.93;;;11.70;52.90;;;;;;5050627;28;20465;-45
2022/03/23 08:41:04;;;;;;;25.47;18.23;;;11.90;52.80;;;;;;5061708;28;20518;-45
2022/03/23 08:43:31;;;;;;;29.47;19.50;;;12.10;52.70;;;;;;5026578;28;20494;-45
2022/03/23 08:45:59;;;;;;;32.10;19.60;;;12.30;51.90;;;;;;5061434;28;20538;-45
2022/03/23 08:48:26;;;;;;;24.73;19.40;;;12.50;51.30;;;;;;5061161;28;20478;-45
2022/03/23 08:50:54;;;;;;;25.67;20.00;;;12.70;52.00;;;;;;5065758;28;20564;-46
2022/03/23 08:53:20;;;;;;;25.60;20.93;;;12.90;51.20;;;;;;5045229;28;20454;-46
2022/03/23 08:55:47;;;;;;;27.00;19.93;;;13.10;51.30;;;;;;5058369;28;20939;-45
2022/03/23 08:58:14;;;;;;;24.67;19.23;;;13.30;50.70;;;;;;5063653;28;20935;-46
2022/03/23 09:00:44;;;;;;;30.73;19.60;;;13.40;51.30;;;;;;5059914;28;20493;-45
2022/03/23 09:03:12;;;;;;;25.13;19.43;;;13.60;50.50;;;;;;5067744;28;20445;-45
2022/03/23 09:05:39;;;;;;;26.10;19.10;;;13.80;49.30;;;;;;5062277;28;20623;-45
2022/03/23 09:08:08;;;;;;;24.97;18.83;;;14.00;49.50;;;;;;5065749;28;20935;-45
2022/03/23 09:10:35;;;;;;;26.07;18.60;;;14.30;48.90;;;;;;5044330;28;20462;-46
2022/03/23 09:13:02;;;;;;;25.33;19.90;;;14.50;47.70;;;;;;5062296;28;20457;-46
2022/03/23 09:15:30;;;;;;;27.10;19.00;;;14.80;47.50;;;;;;5061235;28;20453;-46
2022/03/23 09:18:01;;;;;;;22.57;19.33;;;14.90;46.90;;;;;;5060448;28;20453;-46
2022/03/23 09:20:28;;;;;;;24.90;17.47;;;15.20;46.50;;;;;;5055172;28;21079;-46
2022/03/23 09:22:56;;;;;;;23.80;18.17;;;15.40;45.40;;;;;;5060271;28;20470;-46
2022/03/23 09:25:24;;;;;;;26.57;19.10;;;15.60;44.60;;;;;;5051843;28;20445;-46
2022/03/23 09:27:52;;;;;;;23.80;17.97;;;15.80;44.40;;;;;;5061596;28;20460;-47
2022/03/23 09:30:19;;;;;;;23.10;17.07;;;16.00;44.40;;;;;;5059560;28;20462;-46
2022/03/23 09:32:47;;;;;;;22.40;17.80;;;16.10;43.70;;;;;;5064862;28;20455;-46
2022/03/23 09:35:16;;;;;;;26.73;18.60;;;16.30;43.00;;;;;;5060043;28;20489;-47
2022/03/23 09:37:49;;;;;;;23.60;18.10;;;16.50;42.70;;;;;;5043656;28;20455;-46
2022/03/23 09:40:25;;;;;;;23.67;18.87;;;16.60;43.40;;;;;;5056584;28;20486;-46
2022/03/23 09:43:04;;;;;;;28.20;19.30;;;16.80;43.10;;;;;;5064265;28;20833;-46
2022/03/23 09:47:59;;;;;;;24.10;18.47;;;17.10;42.00;;;;;;5060417;28;21069;-46
2022/03/23 09:50:28;;;;;;;23.50;17.80;;;17.20;41.60;;;;;;5056851;28;20483;-46
2022/03/23 09:52:56;;;;;;;20.23;18.07;;;17.40;41.20;;;;;;5061270;28;20460;-46
2022/03/23 09:55:23;;;;;;;26.50;19.23;;;17.70;40.90;;;;;;5060163;28;20981;-46
2022/03/23 09:57:55;;;;;;;23.63;17.93;;;17.80;40.80;;;;;;5052763;28;20459;-46
2022/03/23 10:00:22;;;;;;;24.70;18.57;;;18.00;40.30;;;;;;5061255;28;20491;-46
2022/03/23 10:03:12;;;;;;;24.00;18.97;;;18.20;40.40;;;;;;5059594;28;20460;-46
2022/03/23 10:06:03;;;;;;;22.77;18.13;;;18.40;40.80;;;;;;5059858;28;20470;-46
2022/03/23 10:09:08;;;;;;;24.90;17.97;;;18.60;40.90;;;;;;5059596;28;20500;-46
2022/03/23 10:12:08;;;;;;;24.60;19.87;;;18.80;40.40;;;;;;5061607;28;20946;-46
2022/03/23 10:14:45;;;;;;;23.23;16.80;;;18.90;39.40;;;;;;5057333;28;20907;-46
2022/03/23 10:17:44;;;;;;;21.27;17.57;;;19.00;39.40;;;;;;5058506;28;20466;-45
2022/03/23 10:20:12;;;;;;;21.43;16.90;;;19.10;39.00;;;;;;5060329;28;20489;-46
2022/03/23 10:22:53;;;;;;;23.57;18.40;;;19.30;39.80;;;;;;5055912;28;20468;-45
2022/03/23 10:25:26;;;;;;;25.10;17.77;;;19.60;39.30;;;;;;5056411;28;20461;-45
2022/03/23 10:27:55;;;;;;;22.93;17.23;;;19.90;37.30;;;;;;5057050;28;20567;-45
2022/03/23 10:30:35;;;;;;;20.90;16.93;;;20.10;36.80;;;;;;5058899;28;20943;-46
2022/03/23 10:33:03;;;;;;;20.77;18.50;;;20.50;37.00;;;;;;5056946;28;20587;-45
2022/03/23 10:35:38;;;;;;;22.83;16.80;;;20.90;35.20;;;;;;5057394;28;20481;-45
2022/03/23 10:38:19;;;;;;;20.57;17.30;;;21.20;35.60;;;;;;5061395;28;20500;-46
2022/03/23 10:40:48;;;;;;;21.87;16.90;;;21.20;34.80;;;;;;5038899;28;20494;-47
2022/03/23 10:43:20;;;;;;;18.60;15.40;;;21.40;33.80;;;;;;5057512;28;20501;-46
2022/03/23 10:45:47;;;;;;;24.03;18.07;;;21.60;33.10;;;;;;5054650;28;20456;-46
2022/03/23 10:48:16;;;;;;;23.30;17.20;;;21.70;32.60;;;;;;5061951;28;20482;-46
2022/03/23 10:50:57;;;;;;;18.47;16.10;;;21.90;32.50;;;;;;5044650;28;20816;-47
2022/03/23 10:53:31;;;;;;;25.80;16.30;;;22.20;32.70;;;;;;5059543;28;21040;-47
2022/03/23 10:55:58;;;;;;;23.70;17.40;;;22.30;32.10;;;;;;5056810;28;20949;-47
2022/03/23 10:58:26;;;;;;;21.63;17.00;;;22.50;30.70;;;;;;5054808;28;20463;-47
2022/03/23 11:01:00;;;;;;;26.60;17.10;;;22.60;30.70;;;;;;5061427;28;20492;-47
2022/03/23 11:03:48;;;;;;;19.73;17.53;;;22.70;31.00;;;;;;5058331;28;20457;-47
2022/03/23 11:06:25;;;;;;;19.50;17.50;;;22.90;31.50;;;;;;5058893;28;20503;-46
2022/03/23 11:08:52;;;;;;;22.30;17.20;;;22.90;31.70;;;;;;5056210;28;20884;-47
2022/03/23 11:16:47;;;;;;;18.40;16.33;;;23.00;30.20;;;;;;5077696;28;20461;-46
2022/03/23 11:19:18;;;;;;;18.57;15.43;;;23.10;30.60;;;;;;5065956;28;20834;-48
2022/03/23 11:22:11;;;;;;;20.50;16.70;;;23.30;30.20;;;;;;5061521;28;20482;-47
2022/03/23 11:24:40;;;;;;;20.60;17.13;;;23.40;30.50;;;;;;5083487;28;20453;-48
2022/03/23 11:27:13;;;;;;;18.00;15.50;;;23.50;29.50;;;;;;5079129;28;20946;-48
2022/03/23 11:29:40;;;;;;;20.33;16.47;;;23.50;28.70;;;;;;5075591;28;20585;-48
2022/03/23 11:32:10;;;;;;;22.80;16.80;;;23.50;29.10;;;;;;5080762;28;20452;-47
2022/03/23 11:34:38;;;;;;;19.47;16.90;;;23.50;28.90;;;;;;5078753;28;20449;-46
2022/03/23 11:37:07;;;;;;;19.43;16.83;;;23.40;28.70;;;;;;5061644;28;20467;-47
2022/03/23 11:39:35;;;;;;;17.57;14.37;;;23.30;30.00;;;;;;5077476;28;20460;-47
2022/03/23 11:42:04;;;;;;;19.10;16.17;;;23.20;28.40;;;;;;5079100;28;20456;-47
2022/03/23 11:44:31;;;;;;;19.60;17.40;;;23.20;29.30;;;;;;5059013;28;20463;-46
2022/03/23 11:47:20;;;;;;;24.33;16.67;;;23.00;29.50;;;;;;5077915;28;20486;-47
2022/03/23 11:50:03;;;;;;;18.60;15.80;;;22.80;29.70;;;;;;5075336;28;20588;-47
2022/03/23 11:52:54;;;;;;;18.00;16.20;;;22.70;30.60;;;;;;5073898;28;20475;-47
2022/03/23 11:55:38;;;;;;;18.40;15.30;;;22.50;29.70;;;;;;5076732;28;20457;-47
2022/03/23 11:58:17;;;;;;;18.00;16.10;;;22.50;29.40;;;;;;5081077;28;20449;-46
2022/03/23 12:00:51;;;;;;;18.07;16.17;;;22.40;28.10;;;;;;5075737;28;20464;-46
2022/03/23 12:03:49;;;;;;;19.80;14.93;;;22.30;28.60;;;;;;5077418;28;20472;-46
2022/03/23 12:06:21;;;;;;;16.67;14.97;;;22.10;28.80;;;;;;5065993;28;20478;-46
2022/03/23 12:08:59;;;;;;;16.93;15.10;;;22.00;28.80;;;;;;5057393;28;20465;-46
2022/03/23 12:11:44;;;;;;;16.47;13.67;;;21.90;29.40;;;;;;5077247;28;20584;-46
2022/03/23 12:14:28;;;;;;;20.70;15.77;;;21.90;29.80;;;;;;5079635;28;20812;-47
2022/03/23 12:16:55;;;;;;;18.73;14.77;;;21.90;28.10;;;;;;5072257;28;21040;-47
2022/03/23 12:20:08;;;;;;;17.37;14.63;;;21.80;28.10;;;;;;5075836;28;20471;-46
2022/03/23 12:22:35;;;;;;;16.30;14.60;;;21.70;27.80;;;;;;5061459;28;20579;-47
2022/03/23 12:25:26;;;;;;;15.47;13.70;;;21.60;28.90;;;;;;5059055;28;20471;-46
2022/03/23 12:28:08;;;;;;;17.20;14.53;;;21.60;29.00;;;;;;5064366;28;20464;-46
2022/03/23 12:30:41;;;;;;;17.23;14.10;;;21.60;28.20;;;;;;5061207;28;20491;-47
2022/03/23 12:33:12;;;;;;;17.63;14.40;;;21.70;28.30;;;;;;5061223;28;20551;-47
2022/03/23 12:35:39;;;;;;;22.90;14.50;;;21.70;27.80;;;;;;5041439;28;20464;-47
2022/03/23 12:38:22;;;;;;;17.10;15.30;;;21.50;27.40;;;;;;5048506;28;20467;-46
2022/03/23 12:40:49;;;;;;;17.37;14.00;;;21.30;28.10;;;;;;5062059;28;20972;-46
2022/03/23 12:43:35;;;;;;;16.03;13.83;;;21.30;27.80;;;;;;5062102;28;20529;-46
2022/03/23 12:46:03;;;;;;;17.60;14.60;;;21.30;28.70;;;;;;5060611;28;20469;-46
2022/03/23 12:57:53;;;;;;;15.30;13.70;;;21.40;27.60;;;;;;5056368;28;22011;-47
2022/03/23 12:59:54;;;;;;;15.97;14.00;;;21.40;27.60;;;;;;5050705;28;20465;-47
2022/03/23 13:02:29;;;;;;;14.73;13.20;;;21.40;27.50;;;;;;5060718;28;20463;-47
2022/03/23 13:04:56;;;;;;;14.77;12.83;;;21.40;27.40;;;;;;5062750;28;21032;-47
2022/03/23 13:07:29;;;;;;;15.13;13.50;;;21.50;27.50;;;;;;5064174;28;20475;-46
2022/03/23 13:10:13;;;;;;;16.50;13.50;;;21.60;27.20;;;;;;5057328;28;20509;-46
2022/03/23 13:12:42;;;;;;;21.97;13.50;;;21.70;26.50;;;;;;5065653;28;20898;-47
2022/03/23 13:15:10;;;;;;;15.27;13.67;;;21.60;26.80;;;;;;5064029;28;20480;-46